Time;durP1;ratioP1;P1;durP2;ratioP2;P2;SDS_P1;SDS_P2;PMS_P1;PMS_P2;Temp;Humidity;BMP_temperature;BMP_pressure;BME280_temperature;BME280_humidity;BME280_pressure;Samples;Min_cycle;Max_cycle;Signal;HPM_P1;HPM_P2
2023/03/24 00:01:11;;;;;;;15.07;5.82;;;;;;;9.50;100.00;96486.50;5059419;28;20048;-87
2023/03/24 00:03:54;;;;;;;12.73;6.35;;;;;;;9.59;100.00;96492.09;5065680;28;20047;-89
2023/03/24 00:06:39;;;;;;;16.60;5.63;;;;;;;9.71;100.00;96489.28;5064136;28;20048;-89
2023/03/24 00:09:23;;;;;;;12.32;4.97;;;;;;;9.51;100.00;96489.91;5061851;28;20043;-88
2023/03/24 00:12:08;;;;;;;9.68;4.47;;;;;;;9.51;100.00;96490.72;5067279;28;20039;-88
2023/03/24 00:14:53;;;;;;;9.98;4.78;;;;;;;9.57;100.00;96484.47;5060647;28;20042;-88
2023/03/24 00:17:38;;;;;;;17.23;4.95;;;;;;;9.54;100.00;96487.59;5062838;28;20079;-88
2023/03/24 00:20:24;;;;;;;12.63;4.97;;;;;;;9.54;100.00;96494.66;5061617;28;20079;-89
2023/03/24 00:23:09;;;;;;;11.10;4.15;;;;;;;9.50;100.00;96504.84;5062372;28;20127;-89
2023/03/24 00:26:04;;;;;;;14.00;4.50;;;;;;;9.25;100.00;96506.22;5059782;28;20147;-89
2023/03/24 00:28:50;;;;;;;9.23;3.63;;;;;;;9.45;100.00;96496.97;5057913;28;20032;-87
2023/03/24 00:31:38;;;;;;;11.25;3.65;;;;;;;9.43;100.00;96505.06;5064058;28;20082;-88
2023/03/24 00:34:26;;;;;;;19.58;4.18;;;;;;;9.12;100.00;96511.84;5063223;28;20056;-89
2023/03/24 00:37:10;;;;;;;12.40;3.67;;;;;;;9.29;100.00;96515.16;5066527;28;20050;-89
2023/03/24 00:39:54;;;;;;;11.93;3.10;;;;;;;9.23;100.00;96521.34;5066838;28;20505;-89
2023/03/24 00:42:40;;;;;;;15.63;3.58;;;;;;;9.22;100.00;96522.41;5063348;28;20568;-89
2023/03/24 00:45:24;;;;;;;16.15;4.25;;;;;;;9.27;100.00;96525.06;5059407;28;20047;-88
2023/03/24 00:48:10;;;;;;;12.05;3.22;;;;;;;9.16;100.00;96538.31;5061459;28;20394;-89
2023/03/24 00:50:55;;;;;;;15.50;3.40;;;;;;;9.22;100.00;96535.47;5064559;28;20835;-89
2023/03/24 00:53:42;;;;;;;13.27;3.05;;;;;;;8.99;100.00;96537.34;5060239;28;20071;-88
2023/03/24 00:56:29;;;;;;;19.60;3.63;;;;;;;9.04;100.00;96522.75;5061073;28;20067;-89
2023/03/24 00:59:13;;;;;;;21.27;3.58;;;;;;;9.07;100.00;96524.88;5058116;28;20040;-89
2023/03/24 01:01:57;;;;;;;20.80;4.40;;;;;;;9.23;100.00;96537.06;5062045;28;20122;-88
2023/03/24 01:04:46;;;;;;;16.10;3.60;;;;;;;9.14;100.00;96535.94;5061161;28;20086;-88
2023/03/24 01:07:30;;;;;;;16.27;3.58;;;;;;;8.95;100.00;96538.88;5068303;28;20123;-89
2023/03/24 01:10:14;;;;;;;13.98;3.22;;;;;;;9.19;100.00;96530.75;5060186;28;20103;-88
2023/03/24 01:13:00;;;;;;;17.50;3.47;;;;;;;9.13;100.00;96544.81;5063682;28;20036;-88
2023/03/24 01:15:44;;;;;;;15.65;3.42;;;;;;;9.06;100.00;96547.63;5064535;28;20043;-88
2023/03/24 01:18:28;;;;;;;13.90;3.15;;;;;;;9.09;100.00;96562.06;5062532;28;20506;-89
2023/03/24 01:21:13;;;;;;;19.67;3.60;;;;;;;9.05;100.00;96574.06;5060357;28;20048;-90
2023/03/24 01:23:57;;;;;;;19.30;3.50;;;;;;;9.03;100.00;96568.25;5057676;28;20559;-88
2023/03/24 01:26:41;;;;;;;14.50;3.60;;;;;;;9.25;100.00;96576.09;5064484;28;20090;-88
2023/03/24 01:29:25;;;;;;;16.40;4.00;;;;;;;8.96;100.00;96574.47;5067358;28;20047;-89
2023/03/24 01:32:09;;;;;;;19.20;4.25;;;;;;;8.94;100.00;96568.72;5065889;28;20056;-89
2023/03/24 01:34:53;;;;;;;13.35;3.25;;;;;;;9.02;100.00;96561.44;5062931;28;20099;-90
2023/03/24 01:37:39;;;;;;;15.85;3.25;;;;;;;8.92;100.00;96562.94;5062777;28;20126;-89
2023/03/24 01:40:30;;;;;;;17.90;4.30;;;;;;;8.93;100.00;96568.94;5067151;28;20379;-89
2023/03/24 01:43:20;;;;;;;19.73;3.80;;;;;;;8.77;100.00;96586.28;5067475;28;20551;-89
2023/03/24 01:46:19;;;;;;;12.93;3.13;;;;;;;9.14;100.00;96590.91;5068108;28;20070;-89
2023/03/24 01:49:07;;;;;;;15.70;4.50;;;;;;;8.96;100.00;96582.31;5060077;28;20043;-89
2023/03/24 01:51:56;;;;;;;14.30;3.42;;;;;;;8.93;100.00;96590.66;5065187;28;20502;-89
2023/03/24 01:54:49;;;;;;;12.38;2.83;;;;;;;9.03;100.00;96589.19;5064578;28;20055;-88
2023/03/24 01:57:37;;;;;;;22.00;4.30;;;;;;;9.06;100.00;96607.03;5069779;28;20044;-88
2023/03/24 02:00:22;;;;;;;16.25;3.03;;;;;;;8.93;100.00;96589.88;5063144;28;20109;-89
2023/03/24 02:03:13;;;;;;;15.90;3.03;;;;;;;9.07;100.00;96595.53;5071613;28;20039;-88
2023/03/24 02:06:01;;;;;;;15.52;3.35;;;;;;;8.95;100.00;96599.06;5070110;28;20043;-89
2023/03/24 02:08:51;;;;;;;18.77;3.67;;;;;;;8.98;100.00;96603.81;5060351;28;20108;-88
2023/03/24 02:11:39;;;;;;;15.70;3.10;;;;;;;9.07;100.00;96619.09;5063485;28;20494;-89
2023/03/24 02:14:23;;;;;;;19.40;3.88;;;;;;;8.93;100.00;96616.84;5064577;28;20411;-89
2023/03/24 02:17:22;;;;;;;20.25;3.55;;;;;;;9.10;100.00;96619.38;5065852;28;20540;-88
2023/03/24 02:20:31;;;;;;;13.43;3.13;;;;;;;8.92;100.00;96623.09;5061030;28;20442;-87
2023/03/24 02:23:33;;;;;;;17.92;3.75;;;;;;;9.15;100.00;96623.88;5062561;28;20090;-87
2023/03/24 02:26:39;;;;;;;20.90;3.88;;;;;;;9.18;100.00;96630.47;5065740;28;20173;-89
2023/03/24 02:29:35;;;;;;;17.38;2.97;;;;;;;9.05;100.00;96631.63;5063664;28;20063;-90
2023/03/24 02:32:51;;;;;;;17.17;4.20;;;;;;;9.15;100.00;96623.88;5062244;28;20043;-88
2023/03/24 02:36:25;;;;;;;23.60;4.05;;;;;;;8.75;100.00;96619.75;5069127;28;20055;-89
2023/03/24 02:39:33;;;;;;;21.58;4.30;;;;;;;8.94;100.00;96613.19;5063506;28;20098;-89
2023/03/24 02:42:17;;;;;;;22.10;3.50;;;;;;;9.01;100.00;96623.47;5068463;28;20051;-88
2023/03/24 02:45:34;;;;;;;15.13;3.92;;;;;;;8.89;100.00;96631.44;5073081;28;20044;-89
2023/03/24 02:48:41;;;;;;;15.02;3.40;;;;;;;8.90;100.00;96627.78;5064211;28;20394;-89
2023/03/24 02:51:41;;;;;;;16.83;3.88;;;;;;;8.80;100.00;96617.19;5061627;28;20044;-88
2023/03/24 02:54:47;;;;;;;18.17;3.78;;;;;;;8.78;100.00;96634.94;5065697;28;20043;-89
2023/03/24 02:57:38;;;;;;;18.90;3.50;;;;;;;8.82;100.00;96626.38;5066166;28;20048;-88
2023/03/24 03:00:33;;;;;;;14.93;3.22;;;;;;;8.81;100.00;96624.00;5064024;28;20110;-88
2023/03/24 03:03:49;;;;;;;19.50;3.78;;;;;;;8.77;100.00;96628.13;5063862;28;20123;-89
2023/03/24 03:06:39;;;;;;;21.52;3.58;;;;;;;8.94;100.00;96618.41;5063281;28;20075;-86
2023/03/24 03:09:26;;;;;;;16.88;4.47;;;;;;;8.57;100.00;96616.38;5061977;28;20098;-88
2023/03/24 03:12:11;;;;;;;25.73;3.72;;;;;;;8.62;100.00;96621.66;5062019;28;20540;-87
2023/03/24 03:15:02;;;;;;;20.30;3.78;;;;;;;8.57;100.00;96639.91;5059382;28;20506;-87
2023/03/24 03:17:52;;;;;;;11.93;2.50;;;;;;;8.64;100.00;96626.66;5061740;28;20096;-86
2023/03/24 03:20:49;;;;;;;21.27;4.38;;;;;;;8.65;100.00;96641.31;5061216;28;20039;-88
2023/03/24 03:23:45;;;;;;;20.02;3.53;;;;;;;8.53;100.00;96633.59;5062377;28;20052;-88
2023/03/24 03:26:31;;;;;;;19.45;3.40;;;;;;;8.60;100.00;96628.97;5063361;28;20090;-87
2023/03/24 03:29:22;;;;;;;18.33;3.55;;;;;;;8.59;100.00;96635.22;5066600;28;20044;-90
2023/03/24 03:32:12;;;;;;;19.35;3.50;;;;;;;8.49;100.00;96624.63;5066345;28;20568;-89
2023/03/24 03:35:31;;;;;;;13.63;3.38;;;;;;;8.65;100.00;96631.66;5052853;28;20055;-90
2023/03/24 03:38:28;;;;;;;26.42;3.88;;;;;;;8.50;100.00;96628.84;5066902;28;20066;-87
2023/03/24 03:41:15;;;;;;;26.63;4.28;;;;;;;8.52;100.00;96632.00;5063352;28;20290;-88
2023/03/24 03:43:59;;;;;;;26.15;3.90;;;;;;;8.53;100.00;96616.06;5067468;28;20067;-87
2023/03/24 03:46:44;;;;;;;15.98;3.08;;;;;;;8.44;100.00;96631.34;5063508;28;20075;-87
2023/03/24 03:49:28;;;;;;;19.95;3.88;;;;;;;8.48;100.00;96628.25;5065530;28;20044;-88
2023/03/24 03:52:13;;;;;;;22.10;4.40;;;;;;;8.54;100.00;96629.94;5064829;28;20567;-87
2023/03/24 03:54:57;;;;;;;24.30;3.13;;;;;;;8.50;100.00;96623.63;5065840;28;20044;-87
2023/03/24 03:57:42;;;;;;;18.17;5.07;;;;;;;8.41;100.00;96607.50;5063285;28;20175;-88
2023/03/24 04:00:27;;;;;;;24.48;3.70;;;;;;;8.51;100.00;96619.97;5064632;28;20493;-89
2023/03/24 04:03:31;;;;;;;18.13;3.90;;;;;;;8.54;100.00;96629.94;5060797;28;20044;-89
2023/03/24 04:06:52;;;;;;;21.75;3.58;;;;;;;8.29;100.00;96628.53;5063231;28;20089;-89
2023/03/24 04:10:30;;;;;;;12.63;3.92;;;;;;;8.27;100.00;96625.38;5065272;28;20094;-87
2023/03/24 04:13:48;;;;;;;13.80;2.70;;;;;;;8.35;100.00;96624.94;5045485;28;20559;-87
2023/03/24 04:16:48;;;;;;;15.07;4.05;;;;;;;8.18;100.00;96621.56;5067418;28;20044;-88
2023/03/24 04:19:40;;;;;;;16.40;3.80;;;;;;;8.59;100.00;96624.78;5067226;28;20092;-88
2023/03/24 04:22:39;;;;;;;22.58;3.95;;;;;;;8.23;100.00;96632.06;5064237;28;20055;-88
2023/03/24 04:25:30;;;;;;;26.95;3.45;;;;;;;8.31;100.00;96634.31;5063818;28;20406;-89
2023/03/24 04:28:36;;;;;;;16.67;3.42;;;;;;;8.23;100.00;96630.25;5066291;28;20055;-88
2023/03/24 04:32:01;;;;;;;20.67;4.22;;;;;;;8.28;100.00;96642.63;5064305;28;20166;-88
2023/03/24 04:35:00;;;;;;;20.17;3.83;;;;;;;8.28;100.00;96653.06;5063309;28;20119;-86
2023/03/24 04:37:44;;;;;;;20.98;4.13;;;;;;;8.26;100.00;96637.63;5060974;28;20043;-87
2023/03/24 04:40:32;;;;;;;16.52;2.80;;;;;;;8.29;100.00;96638.97;5063693;28;20410;-87
2023/03/24 04:43:20;;;;;;;26.42;4.15;;;;;;;8.36;100.00;96649.28;5063097;28;20060;-88
2023/03/24 04:46:07;;;;;;;20.70;3.80;;;;;;;8.51;100.00;96620.75;5060566;28;20038;-87
2023/03/24 04:48:51;;;;;;;16.92;3.30;;;;;;;8.21;100.00;96627.09;5060708;28;20133;-88
2023/03/24 04:51:36;;;;;;;29.17;4.93;;;;;;;8.41;100.00;96634.44;5058453;28;20044;-86
2023/03/24 04:54:22;;;;;;;21.23;3.63;;;;;;;8.33;100.00;96624.41;5062667;28;20048;-87
2023/03/24 04:57:06;;;;;;;23.27;3.85;;;;;;;8.39;100.00;96623.44;5058346;28;20044;-87
2023/03/24 04:59:51;;;;;;;16.83;3.55;;;;;;;8.10;100.00;96631.38;5058666;28;20087;-87
2023/03/24 05:02:35;;;;;;;16.60;3.45;;;;;;;8.32;100.00;96625.44;5061571;28;20397;-88
2023/03/24 05:05:20;;;;;;;20.55;3.40;;;;;;;8.29;100.00;96629.31;5059615;28;20547;-88
2023/03/24 05:08:04;;;;;;;20.75;3.55;;;;;;;8.16;100.00;96634.88;5062208;28;20048;-88
2023/03/24 05:10:48;;;;;;;23.73;4.18;;;;;;;8.44;100.00;96631.34;5060693;28;20044;-86
2023/03/24 05:13:32;;;;;;;21.63;3.45;;;;;;;8.46;100.00;96638.19;5061843;28;20132;-86
2023/03/24 05:16:16;;;;;;;20.27;3.03;;;;;;;8.40;100.00;96640.69;5061330;28;20035;-88
2023/03/24 05:19:00;;;;;;;14.02;3.58;;;;;;;8.15;100.00;96641.91;5065798;28;20040;-89
2023/03/24 05:21:46;;;;;;;18.65;3.42;;;;;;;8.39;100.00;96628.66;5065054;28;20133;-87
2023/03/24 05:24:30;;;;;;;20.13;3.67;;;;;;;8.28;100.00;96629.56;5060737;28;20044;-89
2023/03/24 05:27:14;;;;;;;17.95;3.30;;;;;;;8.13;100.00;96619.66;5062183;28;20044;-89
2023/03/24 05:29:58;;;;;;;21.10;4.80;;;;;;;8.27;100.00;96625.38;5057440;28;20039;-88
2023/03/24 05:32:42;;;;;;;20.20;4.00;;;;;;;8.23;100.00;96619.00;5061959;28;20548;-89
2023/03/24 05:35:26;;;;;;;23.00;3.63;;;;;;;8.17;100.00;96625.19;5060639;28;20136;-86
2023/03/24 05:38:10;;;;;;;17.90;3.78;;;;;;;8.05;100.00;96626.06;5058039;28;20036;-88
2023/03/24 05:40:58;;;;;;;22.27;3.65;;;;;;;8.33;100.00;96634.03;5059861;28;20161;-88
2023/03/24 05:43:42;;;;;;;16.48;3.33;;;;;;;8.05;100.00;96628.66;5064147;28;20059;-89
2023/03/24 05:46:26;;;;;;;21.40;3.70;;;;;;;8.18;100.00;96621.56;5059327;28;20090;-87
2023/03/24 05:49:10;;;;;;;24.45;4.35;;;;;;;8.34;100.00;96612.09;5059122;28;20043;-86
2023/03/24 05:51:55;;;;;;;15.15;3.72;;;;;;;8.25;100.00;96617.75;5060719;28;20033;-87
2023/03/24 05:54:39;;;;;;;25.33;3.97;;;;;;;8.08;100.00;96612.53;5057905;28;20504;-90
2023/03/24 05:57:23;;;;;;;22.30;3.67;;;;;;;8.11;100.00;96627.75;5058268;28;20091;-88
2023/03/24 06:00:15;;;;;;;24.67;3.97;;;;;;;8.26;100.00;96645.47;5059393;28;20085;-88
2023/03/24 06:02:59;;;;;;;26.25;3.80;;;;;;;8.25;100.00;96637.84;5063010;28;20093;-88
2023/03/24 06:05:44;;;;;;;23.20;4.75;;;;;;;8.10;100.00;96631.38;5062753;28;20496;-89
2023/03/24 06:08:32;;;;;;;20.67;3.85;;;;;;;8.40;100.00;96635.47;5063583;28;20426;-88
2023/03/24 06:11:17;;;;;;;19.67;3.33;;;;;;;8.39;100.00;96633.09;5065167;28;20052;-88
2023/03/24 06:14:01;;;;;;;13.20;3.50;;;;;;;8.34;100.00;96639.03;5067503;28;20530;-88
2023/03/24 06:16:45;;;;;;;17.77;3.45;;;;;;;8.49;100.00;96648.16;5062569;28;20063;-85
2023/03/24 06:19:32;;;;;;;20.35;3.85;;;;;;;8.39;100.00;96631.28;5065424;28;20055;-88
2023/03/24 06:22:17;;;;;;;17.30;3.28;;;;;;;8.56;100.00;96622.63;5065260;28;20390;-91
2023/03/24 06:25:03;;;;;;;17.63;3.63;;;;;;;8.71;100.00;96608.97;5049788;28;20047;-86
2023/03/24 06:27:48;;;;;;;11.98;2.90;;;;;;;8.61;100.00;96619.31;5068099;28;20075;-89
2023/03/24 06:30:32;;;;;;;24.05;4.15;;;;;;;8.83;100.00;96601.00;5065643;28;20151;-89
2023/03/24 06:33:16;;;;;;;23.42;3.50;;;;;;;8.73;100.00;96595.66;5071002;28;20448;-89
2023/03/24 06:36:00;;;;;;;13.80;2.67;;;;;;;8.87;100.00;96591.66;5075316;28;20146;-89
2023/03/24 06:38:45;;;;;;;21.88;3.45;;;;;;;8.84;100.00;96613.84;5076387;28;20047;-89
2023/03/24 06:41:30;;;;;;;19.67;3.42;;;;;;;8.79;100.00;96605.16;5074827;28;20093;-89
2023/03/24 06:44:14;;;;;;;18.58;3.13;;;;;;;8.73;100.00;96619.97;5068649;28;20401;-85
2023/03/24 06:47:04;;;;;;;15.02;3.28;;;;;;;9.28;100.00;96602.56;5063277;28;20121;-89
2023/03/24 06:49:48;;;;;;;13.95;2.85;;;;;;;9.44;100.00;96626.28;5067727;28;20067;-89
2023/03/24 06:52:33;;;;;;;14.85;3.42;;;;;;;9.52;100.00;96612.75;5078565;28;20075;-89
2023/03/24 06:55:17;;;;;;;23.08;3.33;;;;;;;9.64;100.00;96609.19;5062261;28;20044;-88
2023/03/24 06:58:02;;;;;;;14.90;3.20;;;;;;;9.39;100.00;96602.66;5064888;28;20039;-89
2023/03/24 07:00:46;;;;;;;25.65;3.78;;;;;;;9.02;100.00;96611.97;5062432;28;20052;-86
2023/03/24 07:03:31;;;;;;;16.42;3.70;;;;;;;9.04;100.00;96614.31;5062102;28;20091;-88
2023/03/24 07:06:17;;;;;;;26.05;3.65;;;;;;;9.19;100.00;96624.97;5068150;28;20087;-88
2023/03/24 07:09:01;;;;;;;28.40;4.80;;;;;;;8.88;100.00;96626.44;5056305;28;20086;-89
2023/03/24 07:11:45;;;;;;;31.40;3.78;;;;;;;9.06;100.00;96638.44;5059469;28;20044;-90
2023/03/24 07:14:29;;;;;;;18.25;3.58;;;;;;;9.13;100.00;96620.72;5063542;28;20674;-85
2023/03/24 07:17:14;;;;;;;19.35;4.15;;;;;;;9.14;100.00;96624.91;5060915;28;20089;-85
2023/03/24 07:19:58;;;;;;;22.20;3.90;;;;;;;9.05;100.00;96624.56;5059459;28;20039;-84
2023/03/24 07:22:42;;;;;;;23.20;3.65;;;;;;;9.19;100.00;96626.81;5062515;28;20039;-83
2023/03/24 07:25:27;;;;;;;26.65;4.03;;;;;;;9.40;100.00;96628.59;5058000;28;20047;-83
2023/03/24 07:28:11;;;;;;;21.17;4.20;;;;;;;9.20;100.00;96638.84;5062873;28;20047;-86
2023/03/24 07:30:55;;;;;;;29.25;4.22;;;;;;;9.34;100.00;96641.88;5063458;28;20043;-85
2023/03/24 07:33:39;;;;;;;21.77;4.05;;;;;;;9.38;100.00;96643.78;5068572;28;20485;-86
2023/03/24 07:36:23;;;;;;;20.08;4.10;;;;;;;9.52;100.00;96654.66;5062570;28;20051;-86
2023/03/24 07:39:08;;;;;;;33.88;5.05;;;;;;;9.51;100.00;96653.06;5061912;28;20044;-88
2023/03/24 07:41:52;;;;;;;24.48;4.65;;;;;;;9.70;100.00;96657.97;5063618;28;20068;-88
2023/03/24 07:44:36;;;;;;;18.05;3.78;;;;;;;9.36;100.00;96655.53;5062565;28;20036;-84
2023/03/24 07:47:20;;;;;;;20.67;4.10;;;;;;;9.53;100.00;96663.28;5060450;28;20426;-87
2023/03/24 07:50:09;;;;;;;17.73;3.63;;;;;;;9.64;100.00;96666.81;5063575;28;20043;-84
2023/03/24 07:52:53;;;;;;;30.27;5.15;;;;;;;9.65;100.00;96671.03;5058088;28;20071;-85
2023/03/24 07:55:37;;;;;;;23.63;4.03;;;;;;;9.82;100.00;96663.81;5062959;28;20036;-84
2023/03/24 07:58:21;;;;;;;28.55;4.32;;;;;;;9.91;100.00;96664.16;5062617;28;20089;-87
2023/03/24 08:01:09;;;;;;;25.25;4.63;;;;;;;10.01;100.00;96658.22;5059197;28;20043;-86
2023/03/24 08:03:53;;;;;;;21.73;3.83;;;;;;;10.04;100.00;96685.78;5058681;28;20128;-90
2023/03/24 08:06:37;;;;;;;26.83;4.38;;;;;;;9.86;100.00;96667.56;5062768;28;20406;-89
2023/03/24 08:09:23;;;;;;;23.73;4.05;;;;;;;10.05;100.00;96664.56;5070728;28;20063;-88
2023/03/24 08:12:07;;;;;;;21.85;3.60;;;;;;;9.78;100.00;96673.22;5066670;28;20082;-88
2023/03/24 08:14:51;;;;;;;23.67;4.03;;;;;;;10.19;100.00;96672.81;5066693;28;20098;-89
2023/03/24 08:17:36;;;;;;;23.20;4.50;;;;;;;10.25;100.00;96660.53;5068536;28;20043;-89
2023/03/24 08:20:20;;;;;;;17.30;3.75;;;;;;;10.17;100.00;96660.97;5062785;28;20120;-86
2023/03/24 08:23:05;;;;;;;31.98;5.03;;;;;;;10.29;100.00;96645.88;5069033;28;20047;-89
2023/03/24 08:25:50;;;;;;;21.95;4.32;;;;;;;10.37;100.00;96662.97;5066095;28;20114;-90
2023/03/24 08:28:34;;;;;;;19.55;3.55;;;;;;;10.47;100.00;96657.03;5076557;28;20054;-90
2023/03/24 08:31:19;;;;;;;27.38;4.65;;;;;;;10.65;100.00;96654.00;5076319;28;20403;-88
2023/03/24 08:34:05;;;;;;;19.08;4.07;;;;;;;10.63;100.00;96666.59;5071933;28;20039;-88
2023/03/24 08:36:50;;;;;;;24.85;4.28;;;;;;;10.65;100.00;96664.50;5067760;28;20048;-90
2023/03/24 08:39:34;;;;;;;23.45;4.38;;;;;;;11.06;100.00;96665.75;5058590;28;20536;-90
2023/03/24 08:42:19;;;;;;;23.40;3.83;;;;;;;10.86;100.00;96659.34;5069937;28;20047;-89
2023/03/24 08:45:03;;;;;;;22.00;4.40;;;;;;;10.81;100.00;96652.25;5071936;28;20032;-85
2023/03/24 08:47:50;;;;;;;22.92;3.75;;;;;;;11.08;100.00;96676.78;5063990;28;20046;-91
2023/03/24 08:50:38;;;;;;;22.27;4.72;;;;;;;11.08;100.00;96655.78;5064603;28;20048;-91
2023/03/24 08:53:22;;;;;;;23.63;4.75;;;;;;;11.08;100.00;96671.53;5065588;28;20182;-90
2023/03/24 08:56:06;;;;;;;27.67;4.10;;;;;;;10.75;100.00;96663.75;5069658;28;20036;-88
2023/03/24 08:58:52;;;;;;;21.38;3.47;;;;;;;11.12;100.00;96669.97;5065192;28;20090;-88
2023/03/24 09:01:36;;;;;;;23.65;3.90;;;;;;;11.02;100.00;96689.09;5068289;28;20406;-88
2023/03/24 09:04:20;;;;;;;24.38;4.78;;;;;;;10.81;100.00;96690.81;5065137;28;20095;-90
2023/03/24 09:07:04;;;;;;;22.95;4.55;;;;;;;11.17;100.00;96696.22;5065615;28;20075;-91
2023/03/24 09:09:49;;;;;;;19.48;3.40;;;;;;;11.24;100.00;96701.25;5068271;28;20078;-91
2023/03/24 09:12:35;;;;;;;18.40;4.05;;;;;;;11.00;100.00;96697.22;5058214;28;20111;-90
2023/03/24 09:15:19;;;;;;;22.45;4.35;;;;;;;11.25;100.00;96690.50;5067461;28;20051;-89
2023/03/24 09:18:03;;;;;;;24.55;4.72;;;;;;;11.38;100.00;96696.31;5064646;28;20071;-90
2023/03/24 09:20:48;;;;;;;22.17;3.63;;;;;;;11.50;100.00;96686.38;5070379;28;20176;-90
2023/03/24 09:23:32;;;;;;;20.70;4.85;;;;;;;11.62;100.00;96703.75;5067673;28;20042;-90
2023/03/24 09:26:16;;;;;;;24.42;4.40;;;;;;;11.51;100.00;96689.81;5064369;28;20415;-89
2023/03/24 09:29:01;;;;;;;21.60;4.57;;;;;;;11.62;100.00;96701.91;5071706;28;20054;-90
2023/03/24 09:31:45;;;;;;;16.30;3.63;;;;;;;12.05;100.00;96714.91;5063811;28;20125;-85
2023/03/24 09:34:31;;;;;;;15.60;3.40;;;;;;;11.99;100.00;96719.34;5060870;28;20052;-88
2023/03/24 09:37:15;;;;;;;13.90;3.63;;;;;;;11.99;100.00;96721.19;5064824;28;20128;-86
2023/03/24 09:40:00;;;;;;;20.80;3.95;;;;;;;12.25;100.00;96726.50;5060994;28;20509;-89
2023/03/24 09:42:50;;;;;;;14.93;3.33;;;;;;;12.16;100.00;96736.75;5042583;28;20060;-87
2023/03/24 09:45:48;;;;;;;18.02;3.83;;;;;;;12.49;100.00;96733.88;5059746;28;20055;-87
2023/03/24 09:48:57;;;;;;;18.20;3.78;;;;;;;12.81;100.00;96709.09;5068539;28;20039;-89
2023/03/24 09:51:45;;;;;;;13.85;3.28;;;;;;;13.06;100.00;96742.47;5059836;28;20094;-90
2023/03/24 09:54:43;;;;;;;19.50;3.90;;;;;;;12.86;100.00;96744.09;5058440;28;20548;-89
2023/03/24 09:57:43;;;;;;;13.45;3.75;;;;;;;13.28;100.00;96750.06;5062812;28;20124;-88
2023/03/24 10:00:31;;;;;;;12.25;3.47;;;;;;;13.47;100.00;96767.94;5061281;28;20059;-90
2023/03/24 10:03:21;;;;;;;10.55;3.28;;;;;;;14.05;100.00;96777.16;5066887;28;20071;-90
2023/03/24 10:06:42;;;;;;;19.65;3.53;;;;;;;13.63;100.00;96766.03;5067777;28;20510;-90
2023/03/24 10:09:39;;;;;;;12.00;2.85;;;;;;;14.33;100.00;96780.13;5041009;28;20517;-89
2023/03/24 10:12:34;;;;;;;12.50;3.10;;;;;;;15.06;100.00;96776.94;5066468;28;20047;-89
2023/03/24 10:15:21;;;;;;;15.38;3.20;;;;;;;14.87;100.00;96785.56;5067939;28;20051;-90
2023/03/24 10:18:12;;;;;;;18.52;3.08;;;;;;;15.45;100.00;96773.34;5065555;28;20039;-89
2023/03/24 10:21:13;;;;;;;16.80;4.25;;;;;;;15.31;99.69;96775.91;5069170;28;20517;-89
2023/03/24 10:24:15;;;;;;;14.85;3.60;;;;;;;15.67;99.87;96770.19;5065867;28;20452;-88
2023/03/24 10:27:29;;;;;;;13.45;3.38;;;;;;;15.30;97.69;96778.81;5067441;28;20108;-91
2023/03/24 10:30:25;;;;;;;14.63;3.90;;;;;;;15.07;99.58;96774.03;5060339;28;20036;-89
2023/03/24 10:33:12;;;;;;;19.17;3.78;;;;;;;15.35;99.99;96773.50;5039281;28;20044;-88
2023/03/24 10:36:02;;;;;;;16.42;4.22;;;;;;;15.29;99.52;96775.41;5064851;28;20195;-91
2023/03/24 10:38:47;;;;;;;15.70;3.45;;;;;;;14.75;100.00;96779.88;5074883;28;20091;-90
2023/03/24 10:41:33;;;;;;;15.93;3.63;;;;;;;14.51;100.00;96762.06;5061719;28;20043;-90
2023/03/24 10:44:20;;;;;;;21.95;3.85;;;;;;;14.74;100.00;96770.34;5065495;28;20471;-88
2023/03/24 10:47:07;;;;;;;15.55;3.35;;;;;;;15.39;100.00;96758.63;5066866;28;20054;-89
2023/03/24 10:49:54;;;;;;;17.48;4.25;;;;;;;15.46;100.00;96753.78;5063620;28;20116;-90
2023/03/24 10:52:47;;;;;;;19.20;3.92;;;;;;;15.32;100.00;96752.88;5059454;28;20134;-90
2023/03/24 10:55:42;;;;;;;15.55;3.58;;;;;;;15.20;100.00;96740.88;5068798;28;20044;-90
2023/03/24 10:58:43;;;;;;;18.80;4.13;;;;;;;14.98;100.00;96755.38;5061084;28;20071;-88
2023/03/24 11:01:34;;;;;;;17.88;4.00;;;;;;;15.62;99.84;96756.25;5058620;28;20063;-89
2023/03/24 11:04:19;;;;;;;16.83;4.28;;;;;;;15.34;99.63;96758.69;5058329;28;20111;-88
2023/03/24 11:07:20;;;;;;;18.95;3.70;;;;;;;14.94;100.00;96764.91;5065108;28;20528;-89
2023/03/24 11:10:15;;;;;;;28.85;4.25;;;;;;;14.41;100.00;96763.75;5066814;28;20093;-89
2023/03/24 11:13:02;;;;;;;16.80;3.78;;;;;;;14.27;100.00;96758.31;5063700;28;20116;-90
2023/03/24 11:16:07;;;;;;;15.63;3.25;;;;;;;14.37;100.00;96761.91;5062079;28;20086;-89
2023/03/24 11:19:01;;;;;;;22.00;3.38;;;;;;;14.73;100.00;96764.31;5063094;28;20171;-86
2023/03/24 11:21:47;;;;;;;20.63;3.40;;;;;;;14.52;100.00;96759.16;5063485;28;20048;-85
2023/03/24 11:24:36;;;;;;;14.80;3.47;;;;;;;14.74;100.00;96760.59;5055720;28;20438;-86
2023/03/24 11:27:23;;;;;;;17.35;3.22;;;;;;;14.87;100.00;96761.78;5059950;28;20099;-86
2023/03/24 11:30:12;;;;;;;17.27;2.92;;;;;;;15.04;99.08;96752.66;5060325;28;20409;-86
2023/03/24 11:32:57;;;;;;;10.90;2.45;;;;;;;15.41;95.04;96745.94;5064999;28;20047;-86
2023/03/24 11:35:42;;;;;;;10.95;2.28;;;;;;;15.38;94.50;96757.84;5057905;28;20190;-88
2023/03/24 11:38:31;;;;;;;8.95;1.95;;;;;;;15.00;92.71;96763.00;5060892;28;20040;-87
2023/03/24 11:41:20;;;;;;;10.10;2.25;;;;;;;14.12;94.82;96761.81;5059485;28;20517;-86
2023/03/24 11:44:18;;;;;;;3.38;1.50;;;;;;;13.66;95.93;96754.16;5060544;28;20394;-86
2023/03/24 11:47:21;;;;;;;6.13;1.58;;;;;;;13.72;96.86;96747.78;5061068;28;20118;-84
2023/03/24 11:50:08;;;;;;;4.40;1.33;;;;;;;13.83;97.32;96733.50;5059646;28;20427;-86
2023/03/24 11:53:01;;;;;;;4.63;1.75;;;;;;;14.09;97.69;96741.25;5058200;28;20118;-86
2023/03/24 11:55:56;;;;;;;5.70;1.73;;;;;;;13.76;99.22;96721.69;5066545;28;20179;-87
2023/03/24 11:58:46;;;;;;;7.03;2.30;;;;;;;13.91;100.00;96733.97;5065863;28;20040;-87
2023/03/24 12:01:43;;;;;;;6.22;1.90;;;;;;;13.66;100.00;96719.88;5063473;28;20047;-87
2023/03/24 12:04:48;;;;;;;6.55;2.00;;;;;;;13.96;100.00;96733.97;5064471;28;20150;-88
2023/03/24 12:07:54;;;;;;;8.68;2.97;;;;;;;14.09;100.00;96743.91;5066582;28;20043;-86
2023/03/24 12:10:50;;;;;;;7.97;1.80;;;;;;;13.89;99.20;96725.56;5059615;28;20040;-84
2023/03/24 12:13:41;;;;;;;8.50;2.25;;;;;;;13.28;100.00;96734.25;5067043;28;21149;-86
2023/03/24 12:16:58;;;;;;;9.80;1.90;;;;;;;12.84;100.00;96745.41;5065984;28;20092;-86
2023/03/24 12:19:50;;;;;;;10.40;1.85;;;;;;;12.70;100.00;96724.91;5063744;28;20052;-87
2023/03/24 12:22:54;;;;;;;5.78;1.55;;;;;;;13.27;100.00;96742.44;5064930;28;20509;-85
2023/03/24 12:25:39;;;;;;;;;;;;;;;13.40;100.00;96743.69;5060408;28;20086;-88
2023/03/24 12:28:44;;;;;;;9.40;2.10;;;;;;;13.52;100.00;96733.66;5062740;28;19919;-86
2023/03/24 12:31:38;;;;;;;5.45;1.80;;;;;;;13.62;99.06;96710.97;5060584;28;20043;-84
2023/03/24 12:34:47;;;;;;;6.03;1.67;;;;;;;14.13;99.18;96720.41;5060567;28;20150;-83
2023/03/24 12:38:18;;;;;;;4.80;1.35;;;;;;;13.92;99.82;96722.38;5055884;28;20189;-83
2023/03/24 12:41:24;;;;;;;7.07;1.85;;;;;;;14.04;100.00;96716.75;5008455;28;20049;-83
2023/03/24 12:44:39;;;;;;;8.93;2.17;;;;;;;14.36;100.00;96712.84;4996490;28;20079;-81
2023/03/24 12:47:47;;;;;;;9.40;1.88;;;;;;;14.38;100.00;96721.28;5063059;28;20040;-88
2023/03/24 12:50:40;;;;;;;11.32;2.30;;;;;;;14.66;100.00;96711.00;5062686;28;20140;-90
2023/03/24 12:54:02;;;;;;;15.27;2.25;;;;;;;14.79;100.00;96707.72;5074388;28;20114;-87
2023/03/24 12:56:57;;;;;;;6.15;1.80;;;;;;;14.79;99.40;96709.59;5072047;28;20055;-86
2023/03/24 13:00:14;;;;;;;9.60;2.30;;;;;;;15.07;98.40;96720.41;5074490;28;20098;-91
2023/03/24 13:03:27;;;;;;;6.18;1.63;;;;;;;15.39;95.47;96711.84;5074682;28;20078;-87
2023/03/24 13:10:19;;;;;;;4.38;1.90;;;;;;;16.03;93.65;96707.34;5077327;28;20094;-84
2023/03/24 13:16:55;;;;;;;6.28;1.90;;;;;;;16.56;89.53;96687.69;5077325;28;20047;-88
2023/03/24 13:19:40;;;;;;;9.38;2.20;;;;;;;16.47;89.03;96668.25;5075118;28;20079;-86